sensor_id;sensor_type;location;lat;lon;timestamp;pressure;altitude;pressure_sealevel;temperature;humidity
80333;BME280;69652;51.864;-2.246;2023-08-21T00:01:11;102219.00;;;17.49;76.40
80333;BME280;69652;51.864;-2.246;2023-08-21T00:03:37;102220.47;;;17.46;77.07
80333;BME280;69652;51.864;-2.246;2023-08-21T00:06:02;102227.69;;;17.42;76.67
80333;BME280;69652;51.864;-2.246;2023-08-21T00:08:28;102220.06;;;17.39;77.40
80333;BME280;69652;51.864;-2.246;2023-08-21T00:10:53;102214.41;;;17.36;77.43
80333;BME280;69652;51.864;-2.246;2023-08-21T00:13:18;102221.34;;;17.33;78.09
80333;BME280;69652;51.864;-2.246;2023-08-21T00:15:44;102217.59;;;17.29;77.37
80333;BME280;69652;51.864;-2.246;2023-08-21T00:18:09;102219.84;;;17.27;77.90
80333;BME280;69652;51.864;-2.246;2023-08-21T00:20:35;102219.47;;;17.20;78.00
80333;BME280;69652;51.864;-2.246;2023-08-21T00:23:00;102215.09;;;17.19;77.58
80333;BME280;69652;51.864;-2.246;2023-08-21T00:25:26;102225.06;;;17.15;77.41
80333;BME280;69652;51.864;-2.246;2023-08-21T00:27:51;102214.09;;;17.15;78.36
80333;BME280;69652;51.864;-2.246;2023-08-21T00:30:17;102215.72;;;17.16;78.18
80333;BME280;69652;51.864;-2.246;2023-08-21T00:32:42;102214.09;;;17.15;78.56
80333;BME280;69652;51.864;-2.246;2023-08-21T00:35:08;102212.31;;;17.10;78.42
80333;BME280;69652;51.864;-2.246;2023-08-21T00:37:33;102217.28;;;17.08;78.73
80333;BME280;69652;51.864;-2.246;2023-08-21T00:39:59;102206.09;;;17.05;79.01
80333;BME280;69652;51.864;-2.246;2023-08-21T00:42:24;102215.16;;;17.05;79.64
80333;BME280;69652;51.864;-2.246;2023-08-21T00:44:50;102218.66;;;16.97;78.47
80333;BME280;69652;51.864;-2.246;2023-08-21T00:47:15;102216.22;;;16.95;78.96
80333;BME280;69652;51.864;-2.246;2023-08-21T00:49:41;102220.06;;;16.94;80.69
80333;BME280;69652;51.864;-2.246;2023-08-21T00:52:14;102221.28;;;16.88;80.72
80333;BME280;69652;51.864;-2.246;2023-08-21T00:54:40;102221.13;;;16.85;81.13
80333;BME280;69652;51.864;-2.246;2023-08-21T00:57:05;102223.56;;;16.86;81.38
80333;BME280;69652;51.864;-2.246;2023-08-21T00:59:31;102226.31;;;16.86;81.04
80333;BME280;69652;51.864;-2.246;2023-08-21T01:01:57;102221.72;;;16.82;81.43
80333;BME280;69652;51.864;-2.246;2023-08-21T01:04:22;102223.97;;;16.80;80.67
80333;BME280;69652;51.864;-2.246;2023-08-21T01:06:49;102219.19;;;16.85;81.78
80333;BME280;69652;51.864;-2.246;2023-08-21T01:09:29;102223.03;;;16.84;81.82
80333;BME280;69652;51.864;-2.246;2023-08-21T01:12:19;102228.63;;;16.79;81.84
80333;BME280;69652;51.864;-2.246;2023-08-21T01:14:57;102224.78;;;16.80;81.66
80333;BME280;69652;51.864;-2.246;2023-08-21T01:17:24;102235.53;;;16.77;81.69
80333;BME280;69652;51.864;-2.246;2023-08-21T01:19:50;102241.66;;;16.74;81.96
80333;BME280;69652;51.864;-2.246;2023-08-21T01:22:17;102233.22;;;16.70;81.79
80333;BME280;69652;51.864;-2.246;2023-08-21T01:24:42;102232.41;;;16.70;81.79
80333;BME280;69652;51.864;-2.246;2023-08-21T01:27:09;102235.75;;;16.67;82.21
80333;BME280;69652;51.864;-2.246;2023-08-21T01:29:35;102230.91;;;16.64;81.94
80333;BME280;69652;51.864;-2.246;2023-08-21T01:34:39;102235.34;;;16.59;82.26
80333;BME280;69652;51.864;-2.246;2023-08-21T01:37:06;102239.72;;;16.60;81.32
80333;BME280;69652;51.864;-2.246;2023-08-21T01:39:32;102228.47;;;16.62;82.30
80333;BME280;69652;51.864;-2.246;2023-08-21T01:41:58;102233.44;;;16.60;82.89
80333;BME280;69652;51.864;-2.246;2023-08-21T01:44:23;102230.47;;;16.56;82.13
80333;BME280;69652;51.864;-2.246;2023-08-21T01:46:49;102238.41;;;16.58;82.93
80333;BME280;69652;51.864;-2.246;2023-08-21T01:49:15;102226.91;;;16.56;83.40
80333;BME280;69652;51.864;-2.246;2023-08-21T01:51:40;102226.22;;;16.50;82.42
80333;BME280;69652;51.864;-2.246;2023-08-21T01:54:06;102223.66;;;16.54;83.89
80333;BME280;69652;51.864;-2.246;2023-08-21T01:56:31;102221.88;;;16.49;83.84
80333;BME280;69652;51.864;-2.246;2023-08-21T01:58:56;102228.47;;;16.48;83.81
80333;BME280;69652;51.864;-2.246;2023-08-21T02:01:22;102223.28;;;16.47;82.43
80333;BME280;69652;51.864;-2.246;2023-08-21T02:03:48;102225.31;;;16.41;82.25
80333;BME280;69652;51.864;-2.246;2023-08-21T02:06:14;102220.34;;;16.43;83.91
80333;BME280;69652;51.864;-2.246;2023-08-21T02:08:39;102224.00;;;16.39;83.38
80333;BME280;69652;51.864;-2.246;2023-08-21T02:11:05;102227.88;;;16.38;83.23
80333;BME280;69652;51.864;-2.246;2023-08-21T02:13:30;102223.19;;;16.38;83.49
80333;BME280;69652;51.864;-2.246;2023-08-21T02:15:58;102218.84;;;16.37;84.49
80333;BME280;69652;51.864;-2.246;2023-08-21T02:18:23;102226.53;;;16.35;83.15
80333;BME280;69652;51.864;-2.246;2023-08-21T02:20:49;102228.78;;;16.33;84.21
80333;BME280;69652;51.864;-2.246;2023-08-21T02:23:15;102233.13;;;16.34;84.08
80333;BME280;69652;51.864;-2.246;2023-08-21T02:25:41;102225.66;;;16.26;83.11
80333;BME280;69652;51.864;-2.246;2023-08-21T02:28:06;102230.31;;;16.25;83.66
80333;BME280;69652;51.864;-2.246;2023-08-21T02:30:32;102228.38;;;16.26;84.37
80333;BME280;69652;51.864;-2.246;2023-08-21T02:32:57;102227.56;;;16.25;84.80
80333;BME280;69652;51.864;-2.246;2023-08-21T02:35:23;102226.47;;;16.27;85.34
80333;BME280;69652;51.864;-2.246;2023-08-21T02:37:48;102222.69;;;16.22;84.19
80333;BME280;69652;51.864;-2.246;2023-08-21T02:40:14;102221.88;;;16.22;83.12
80333;BME280;69652;51.864;-2.246;2023-08-21T02:42:39;102227.34;;;16.22;83.17
80333;BME280;69652;51.864;-2.246;2023-08-21T02:45:05;102218.25;;;16.27;84.31
80333;BME280;69652;51.864;-2.246;2023-08-21T02:47:38;102223.19;;;16.24;83.60
80333;BME280;69652;51.864;-2.246;2023-08-21T02:50:07;102216.09;;;16.23;84.38
80333;BME280;69652;51.864;-2.246;2023-08-21T02:52:34;102219.34;;;16.25;85.00
80333;BME280;69652;51.864;-2.246;2023-08-21T02:55:00;102226.25;;;16.23;84.00
80333;BME280;69652;51.864;-2.246;2023-08-21T02:57:26;102218.25;;;16.27;83.78
80333;BME280;69652;51.864;-2.246;2023-08-21T02:59:52;102211.44;;;16.24;83.59
80333;BME280;69652;51.864;-2.246;2023-08-21T03:02:18;102218.84;;;16.23;82.86
80333;BME280;69652;51.864;-2.246;2023-08-21T03:04:44;102218.31;;;16.21;84.61
80333;BME280;69652;51.864;-2.246;2023-08-21T03:07:10;102223.81;;;16.21;84.03
80333;BME280;69652;51.864;-2.246;2023-08-21T03:09:37;102223.50;;;16.23;84.12
80333;BME280;69652;51.864;-2.246;2023-08-21T03:12:03;102221.88;;;16.22;83.49
80333;BME280;69652;51.864;-2.246;2023-08-21T03:14:28;102220.75;;;16.23;84.18
80333;BME280;69652;51.864;-2.246;2023-08-21T03:16:54;102221.97;;;16.17;83.98
80333;BME280;69652;51.864;-2.246;2023-08-21T03:19:19;102219.34;;;16.12;83.64
80333;BME280;69652;51.864;-2.246;2023-08-21T03:21:45;102225.44;;;16.09;83.39
80333;BME280;69652;51.864;-2.246;2023-08-21T03:24:10;102215.78;;;16.11;84.71
80333;BME280;69652;51.864;-2.246;2023-08-21T03:26:36;102216.19;;;16.18;84.62
80333;BME280;69652;51.864;-2.246;2023-08-21T03:29:01;102216.81;;;16.15;84.13
80333;BME280;69652;51.864;-2.246;2023-08-21T03:31:27;102221.50;;;16.15;84.27
80333;BME280;69652;51.864;-2.246;2023-08-21T03:33:53;102223.09;;;16.16;83.76
80333;BME280;69652;51.864;-2.246;2023-08-21T03:36:18;102231.63;;;16.14;83.91
80333;BME280;69652;51.864;-2.246;2023-08-21T03:38:44;102222.38;;;16.10;84.64
80333;BME280;69652;51.864;-2.246;2023-08-21T03:41:10;102224.00;;;16.11;84.05
80333;BME280;69652;51.864;-2.246;2023-08-21T03:43:36;102221.56;;;16.10;84.59
80333;BME280;69652;51.864;-2.246;2023-08-21T03:46:01;102218.84;;;16.10;83.57
80333;BME280;69652;51.864;-2.246;2023-08-21T03:48:27;102215.72;;;16.16;84.03
80333;BME280;69652;51.864;-2.246;2023-08-21T03:50:52;102215.72;;;16.16;84.06
80333;BME280;69652;51.864;-2.246;2023-08-21T03:53:18;102221.78;;;16.13;83.57
80333;BME280;69652;51.864;-2.246;2023-08-21T03:55:43;102213.44;;;16.18;83.51
80333;BME280;69652;51.864;-2.246;2023-08-21T03:58:09;102227.66;;;16.20;83.65
80333;BME280;69652;51.864;-2.246;2023-08-21T04:00:34;102221.38;;;16.20;85.16
80333;BME280;69652;51.864;-2.246;2023-08-21T04:03:00;102215.28;;;16.23;84.53
80333;BME280;69652;51.864;-2.246;2023-08-21T04:05:25;102214.09;;;16.15;83.55
80333;BME280;69652;51.864;-2.246;2023-08-21T04:07:51;102216.31;;;16.13;84.96
80333;BME280;69652;51.864;-2.246;2023-08-21T04:10:16;102222.09;;;16.12;84.67
80333;BME280;69652;51.864;-2.246;2023-08-21T04:12:42;102220.66;;;16.14;84.14
80333;BME280;69652;51.864;-2.246;2023-08-21T04:15:08;102216.41;;;16.22;83.63
80333;BME280;69652;51.864;-2.246;2023-08-21T04:17:34;102221.66;;;16.32;84.39
80333;BME280;69652;51.864;-2.246;2023-08-21T04:19:59;102218.53;;;16.39;83.98
80333;BME280;69652;51.864;-2.246;2023-08-21T04:22:24;102223.69;;;16.40;83.29
80333;BME280;69652;51.864;-2.246;2023-08-21T04:24:50;102217.59;;;16.43;83.92
80333;BME280;69652;51.864;-2.246;2023-08-21T04:27:15;102222.25;;;16.43;83.04
80333;BME280;69652;51.864;-2.246;2023-08-21T04:29:41;102219.72;;;16.46;84.40
80333;BME280;69652;51.864;-2.246;2023-08-21T04:32:06;102206.03;;;16.46;84.30
80333;BME280;69652;51.864;-2.246;2023-08-21T04:34:32;102213.94;;;16.48;83.68
80333;BME280;69652;51.864;-2.246;2023-08-21T04:36:58;102214.75;;;16.48;83.79
80333;BME280;69652;51.864;-2.246;2023-08-21T04:39:23;102218.09;;;16.45;84.46
80333;BME280;69652;51.864;-2.246;2023-08-21T04:41:49;102215.16;;;16.42;84.90
80333;BME280;69652;51.864;-2.246;2023-08-21T04:44:14;102219.81;;;16.41;85.08
80333;BME280;69652;51.864;-2.246;2023-08-21T04:46:40;102222.56;;;16.41;84.09
80333;BME280;69652;51.864;-2.246;2023-08-21T04:49:05;102213.44;;;16.46;83.41
80333;BME280;69652;51.864;-2.246;2023-08-21T04:51:31;102214.97;;;16.52;83.64
80333;BME280;69652;51.864;-2.246;2023-08-21T04:53:56;102219.81;;;16.55;83.79
80333;BME280;69652;51.864;-2.246;2023-08-21T04:56:22;102217.38;;;16.53;84.54
80333;BME280;69652;51.864;-2.246;2023-08-21T04:58:47;102214.56;;;16.45;84.60
80333;BME280;69652;51.864;-2.246;2023-08-21T05:01:13;102219.66;;;16.38;84.62
80333;BME280;69652;51.864;-2.246;2023-08-21T05:03:38;102217.50;;;16.35;85.37
80333;BME280;69652;51.864;-2.246;2023-08-21T05:06:03;102217.31;;;16.31;85.23
80333;BME280;69652;51.864;-2.246;2023-08-21T05:08:29;102216.31;;;16.27;85.30
80333;BME280;69652;51.864;-2.246;2023-08-21T05:10:58;102223.19;;;16.24;85.31
80333;BME280;69652;51.864;-2.246;2023-08-21T05:13:25;102223.81;;;16.21;85.32
80333;BME280;69652;51.864;-2.246;2023-08-21T05:15:57;102230.09;;;16.22;84.98
80333;BME280;69652;51.864;-2.246;2023-08-21T05:18:24;102235.06;;;16.20;84.62
80333;BME280;69652;51.864;-2.246;2023-08-21T05:20:51;102224.09;;;16.20;85.07
80333;BME280;69652;51.864;-2.246;2023-08-21T05:23:17;102227.66;;;16.20;84.38
80333;BME280;69652;51.864;-2.246;2023-08-21T05:25:46;102225.72;;;16.21;84.70
80333;BME280;69652;51.864;-2.246;2023-08-21T05:28:12;102228.97;;;16.23;84.90
80333;BME280;69652;51.864;-2.246;2023-08-21T05:30:37;102226.25;;;16.23;84.03
80333;BME280;69652;51.864;-2.246;2023-08-21T05:33:03;102235.56;;;16.22;83.71
80333;BME280;69652;51.864;-2.246;2023-08-21T05:35:38;102236.38;;;16.22;84.04
80333;BME280;69652;51.864;-2.246;2023-08-21T05:38:05;102237.19;;;16.23;83.47
80333;BME280;69652;51.864;-2.246;2023-08-21T05:40:31;102245.41;;;16.23;84.26
80333;BME280;69652;51.864;-2.246;2023-08-21T05:42:57;102250.09;;;16.22;83.55
80333;BME280;69652;51.864;-2.246;2023-08-21T05:45:23;102247.88;;;16.24;84.35
80333;BME280;69652;51.864;-2.246;2023-08-21T05:47:48;102241.56;;;16.24;83.78
80333;BME280;69652;51.864;-2.246;2023-08-21T05:50:14;102240.84;;;16.32;83.96
80333;BME280;69652;51.864;-2.246;2023-08-21T05:52:40;102240.25;;;16.35;83.17
80333;BME280;69652;51.864;-2.246;2023-08-21T05:55:05;102238.84;;;16.38;82.92
80333;BME280;69652;51.864;-2.246;2023-08-21T05:57:31;102237.38;;;16.40;83.38
80333;BME280;69652;51.864;-2.246;2023-08-21T05:59:56;102237.72;;;16.39;83.53
80333;BME280;69652;51.864;-2.246;2023-08-21T06:02:22;102244.50;;;16.41;82.63
80333;BME280;69652;51.864;-2.246;2023-08-21T06:04:47;102238.19;;;16.41;82.97
80333;BME280;69652;51.864;-2.246;2023-08-21T06:07:13;102237.72;;;16.39;82.77
80333;BME280;69652;51.864;-2.246;2023-08-21T06:09:38;102237.09;;;16.42;82.72
80333;BME280;69652;51.864;-2.246;2023-08-21T06:12:04;102236.47;;;16.45;82.71
80333;BME280;69652;51.864;-2.246;2023-08-21T06:14:29;102239.44;;;16.48;82.47
80333;BME280;69652;51.864;-2.246;2023-08-21T06:16:59;102230.59;;;16.51;82.38
80333;BME280;69652;51.864;-2.246;2023-08-21T06:19:25;102242.25;;;16.57;81.60
80333;BME280;69652;51.864;-2.246;2023-08-21T06:21:51;102238.59;;;16.61;82.13
80333;BME280;69652;51.864;-2.246;2023-08-21T06:24:16;102237.53;;;16.63;81.53
80333;BME280;69652;51.864;-2.246;2023-08-21T06:26:42;102236.06;;;16.65;81.68
80333;BME280;69652;51.864;-2.246;2023-08-21T06:29:07;102239.03;;;16.69;81.39
80333;BME280;69652;51.864;-2.246;2023-08-21T06:31:33;102249.59;;;16.75;80.53
80333;BME280;69652;51.864;-2.246;2023-08-21T06:33:58;102251.19;;;16.76;80.53
80333;BME280;69652;51.864;-2.246;2023-08-21T06:36:24;102261.13;;;16.86;80.57
80333;BME280;69652;51.864;-2.246;2023-08-21T06:38:49;102249.34;;;16.85;80.57
80333;BME280;69652;51.864;-2.246;2023-08-21T06:41:15;102253.59;;;16.91;79.86
80333;BME280;69652;51.864;-2.246;2023-08-21T06:43:40;102247.69;;;16.98;79.82
80333;BME280;69652;51.864;-2.246;2023-08-21T06:46:06;102245.63;;;17.04;80.18
80333;BME280;69652;51.864;-2.246;2023-08-21T06:48:32;102254.69;;;17.04;79.11
80333;BME280;69652;51.864;-2.246;2023-08-21T06:50:58;102261.47;;;17.07;79.42
80333;BME280;69652;51.864;-2.246;2023-08-21T06:53:23;102252.50;;;17.15;78.70
80333;BME280;69652;51.864;-2.246;2023-08-21T06:55:48;102254.03;;;17.21;79.09
80333;BME280;69652;51.864;-2.246;2023-08-21T06:58:14;102248.22;;;17.22;78.25
80333;BME280;69652;51.864;-2.246;2023-08-21T07:00:39;102242.75;;;17.22;78.53
80333;BME280;69652;51.864;-2.246;2023-08-21T07:03:05;102250.47;;;17.20;77.56
80333;BME280;69652;51.864;-2.246;2023-08-21T07:05:33;102249.44;;;17.16;78.14
80333;BME280;69652;51.864;-2.246;2023-08-21T07:07:59;102257.25;;;17.23;78.05
80333;BME280;69652;51.864;-2.246;2023-08-21T07:10:24;102247.53;;;17.39;77.63
80333;BME280;69652;51.864;-2.246;2023-08-21T07:12:50;102249.16;;;17.40;77.18
80333;BME280;69652;51.864;-2.246;2023-08-21T07:15:15;102254.53;;;17.45;77.35
80333;BME280;69652;51.864;-2.246;2023-08-21T07:17:41;102260.38;;;17.52;76.65
80333;BME280;69652;51.864;-2.246;2023-08-21T07:20:07;102259.47;;;17.57;76.49
80333;BME280;69652;51.864;-2.246;2023-08-21T07:22:32;102264.25;;;17.51;76.23
80333;BME280;69652;51.864;-2.246;2023-08-21T07:24:58;102261.50;;;17.51;75.73
80333;BME280;69652;51.864;-2.246;2023-08-21T07:27:25;102270.81;;;17.64;76.03
80333;BME280;69652;51.864;-2.246;2023-08-21T07:29:51;102256.38;;;17.58;76.11
80333;BME280;69652;51.864;-2.246;2023-08-21T07:32:16;102261.81;;;17.72;76.04
80333;BME280;69652;51.864;-2.246;2023-08-21T07:34:42;102253.59;;;17.72;75.08
80333;BME280;69652;51.864;-2.246;2023-08-21T07:37:08;102254.47;;;17.81;75.20
80333;BME280;69652;51.864;-2.246;2023-08-21T07:39:34;102256.22;;;17.77;75.29
80333;BME280;69652;51.864;-2.246;2023-08-21T07:42:00;102247.19;;;17.85;75.01
80333;BME280;69652;51.864;-2.246;2023-08-21T07:44:26;102254.00;;;17.88;75.22
80333;BME280;69652;51.864;-2.246;2023-08-21T07:46:52;102251.88;;;17.85;74.69
80333;BME280;69652;51.864;-2.246;2023-08-21T07:49:17;102255.13;;;17.87;74.42
80333;BME280;69652;51.864;-2.246;2023-08-21T07:51:42;102252.47;;;18.04;74.00
80333;BME280;69652;51.864;-2.246;2023-08-21T07:54:08;102252.31;;;18.09;74.04
80333;BME280;69652;51.864;-2.246;2023-08-21T07:56:33;102253.09;;;18.01;73.99
80333;BME280;69652;51.864;-2.246;2023-08-21T07:59:01;102254.41;;;18.03;74.00
80333;BME280;69652;51.864;-2.246;2023-08-21T08:01:27;102255.25;;;18.13;73.56
80333;BME280;69652;51.864;-2.246;2023-08-21T08:03:52;102248.63;;;18.14;73.30
80333;BME280;69652;51.864;-2.246;2023-08-21T08:06:18;102248.06;;;18.34;73.13
80333;BME280;69652;51.864;-2.246;2023-08-21T08:08:44;102247.25;;;18.42;72.44
80333;BME280;69652;51.864;-2.246;2023-08-21T08:11:11;102245.31;;;18.42;72.60
80333;BME280;69652;51.864;-2.246;2023-08-21T08:13:36;102247.13;;;18.47;71.68
80333;BME280;69652;51.864;-2.246;2023-08-21T08:16:01;102243.09;;;18.53;72.05
80333;BME280;69652;51.864;-2.246;2023-08-21T08:18:27;102244.47;;;18.64;70.92
80333;BME280;69652;51.864;-2.246;2023-08-21T08:20:52;102244.06;;;18.49;71.86
80333;BME280;69652;51.864;-2.246;2023-08-21T08:23:19;102246.41;;;18.72;71.43
80333;BME280;69652;51.864;-2.246;2023-08-21T08:25:45;102238.66;;;18.92;70.94
80333;BME280;69652;51.864;-2.246;2023-08-21T08:28:10;102239.31;;;18.97;69.98
80333;BME280;69652;51.864;-2.246;2023-08-21T08:30:36;102235.25;;;19.03;69.95
80333;BME280;69652;51.864;-2.246;2023-08-21T08:33:02;102243.34;;;19.26;69.41
80333;BME280;69652;51.864;-2.246;2023-08-21T08:35:27;102254.38;;;19.34;69.06
80333;BME280;69652;51.864;-2.246;2023-08-21T08:37:52;102254.34;;;19.43;68.51
80333;BME280;69652;51.864;-2.246;2023-08-21T08:40:18;102258.84;;;19.73;68.52
80333;BME280;69652;51.864;-2.246;2023-08-21T08:42:43;102252.50;;;19.90;68.23
80333;BME280;69652;51.864;-2.246;2023-08-21T08:45:12;102246.72;;;19.66;68.20
80333;BME280;69652;51.864;-2.246;2023-08-21T08:47:39;102252.53;;;19.73;67.54
80333;BME280;69652;51.864;-2.246;2023-08-21T08:50:07;102255.13;;;19.78;67.53
80333;BME280;69652;51.864;-2.246;2023-08-21T08:52:38;102260.78;;;19.81;66.74
80333;BME280;69652;51.864;-2.246;2023-08-21T08:55:05;102265.03;;;19.70;66.86
80333;BME280;69652;51.864;-2.246;2023-08-21T08:57:32;102259.38;;;19.50;67.72
80333;BME280;69652;51.864;-2.246;2023-08-21T08:59:59;102253.06;;;19.40;67.93
80333;BME280;69652;51.864;-2.246;2023-08-21T09:02:25;102254.69;;;19.59;67.03
80333;BME280;69652;51.864;-2.246;2023-08-21T09:04:51;102251.88;;;19.76;66.91
80333;BME280;69652;51.864;-2.246;2023-08-21T09:07:17;102256.22;;;19.94;66.53
80333;BME280;69652;51.864;-2.246;2023-08-21T09:09:46;102258.41;;;20.09;65.00
80333;BME280;69652;51.864;-2.246;2023-08-21T09:12:14;102250.88;;;20.36;64.55
80333;BME280;69652;51.864;-2.246;2023-08-21T09:14:41;102246.94;;;20.66;63.17
80333;BME280;69652;51.864;-2.246;2023-08-21T09:17:07;102252.97;;;20.39;63.73
80333;BME280;69652;51.864;-2.246;2023-08-21T09:19:33;102245.78;;;20.46;63.97
80333;BME280;69652;51.864;-2.246;2023-08-21T09:21:59;102247.50;;;20.22;64.96
80333;BME280;69652;51.864;-2.246;2023-08-21T09:24:24;102262.66;;;20.45;64.44
80333;BME280;69652;51.864;-2.246;2023-08-21T09:26:50;102250.16;;;20.47;64.35
80333;BME280;69652;51.864;-2.246;2023-08-21T09:29:16;102256.63;;;20.51;63.66
80333;BME280;69652;51.864;-2.246;2023-08-21T09:31:42;102250.47;;;20.46;63.16
80333;BME280;69652;51.864;-2.246;2023-08-21T09:34:12;102255.41;;;20.40;62.51
80333;BME280;69652;51.864;-2.246;2023-08-21T09:36:38;102248.91;;;20.36;63.38
80333;BME280;69652;51.864;-2.246;2023-08-21T09:39:04;102247.06;;;20.49;62.48
80333;BME280;69652;51.864;-2.246;2023-08-21T09:41:31;102247.84;;;20.79;62.41
80333;BME280;69652;51.864;-2.246;2023-08-21T09:44:01;102250.47;;;20.75;62.96
80333;BME280;69652;51.864;-2.246;2023-08-21T09:46:29;102241.47;;;20.87;61.71
80333;BME280;69652;51.864;-2.246;2023-08-21T09:48:54;102241.00;;;20.85;62.42
80333;BME280;69652;51.864;-2.246;2023-08-21T09:51:20;102237.91;;;20.57;62.89
80333;BME280;69652;51.864;-2.246;2023-08-21T09:53:48;102247.34;;;20.56;62.71
80333;BME280;69652;51.864;-2.246;2023-08-21T09:56:14;102241.78;;;20.65;63.00
80333;BME280;69652;51.864;-2.246;2023-08-21T09:58:39;102241.56;;;20.90;63.10
80333;BME280;69652;51.864;-2.246;2023-08-21T10:01:06;102233.34;;;21.89;60.09
80333;BME280;69652;51.864;-2.246;2023-08-21T10:03:42;102224.66;;;21.67;59.46
80333;BME280;69652;51.864;-2.246;2023-08-21T10:06:10;102216.53;;;21.82;59.85
80333;BME280;69652;51.864;-2.246;2023-08-21T10:08:40;102215.53;;;22.11;58.59
80333;BME280;69652;51.864;-2.246;2023-08-21T10:11:09;102226.16;;;21.64;58.04
80333;BME280;69652;51.864;-2.246;2023-08-21T10:13:37;102226.13;;;21.52;58.43
80333;BME280;69652;51.864;-2.246;2023-08-21T10:16:04;102230.78;;;21.39;58.96
80333;BME280;69652;51.864;-2.246;2023-08-21T10:18:35;102231.81;;;21.68;58.93
80333;BME280;69652;51.864;-2.246;2023-08-21T10:21:12;102232.53;;;21.44;58.76
80333;BME280;69652;51.864;-2.246;2023-08-21T10:23:38;102226.84;;;21.28;58.07
80333;BME280;69652;51.864;-2.246;2023-08-21T10:26:06;102207.50;;;22.70;53.65
80333;BME280;69652;51.864;-2.246;2023-08-21T10:28:55;102204.00;;;22.21;54.26
80333;BME280;69652;51.864;-2.246;2023-08-21T10:31:33;102205.41;;;22.27;54.91
80333;BME280;69652;51.864;-2.246;2023-08-21T10:34:02;102198.75;;;23.80;49.78
80333;BME280;69652;51.864;-2.246;2023-08-21T10:39:21;102203.97;;;23.10;50.61
80333;BME280;69652;51.864;-2.246;2023-08-21T10:42:11;102194.28;;;23.32;50.82
80333;BME280;69652;51.864;-2.246;2023-08-21T10:47:30;102206.88;;;22.13;55.21
80333;BME280;69652;51.864;-2.246;2023-08-21T10:50:01;102202.59;;;23.04;52.86
80333;BME280;69652;51.864;-2.246;2023-08-21T10:52:38;102210.41;;;22.62;54.93
80333;BME280;69652;51.864;-2.246;2023-08-21T10:55:09;102210.78;;;22.48;55.08
80333;BME280;69652;51.864;-2.246;2023-08-21T10:57:35;102211.47;;;22.33;54.80
80333;BME280;69652;51.864;-2.246;2023-08-21T11:00:04;102221.28;;;22.30;55.25
80333;BME280;69652;51.864;-2.246;2023-08-21T11:02:40;102217.34;;;22.56;54.43
80333;BME280;69652;51.864;-2.246;2023-08-21T11:05:07;102224.41;;;22.53;54.75
80333;BME280;69652;51.864;-2.246;2023-08-21T11:07:42;102216.13;;;22.29;55.18
80333;BME280;69652;51.864;-2.246;2023-08-21T11:10:22;102212.97;;;22.43;54.80
80333;BME280;69652;51.864;-2.246;2023-08-21T11:12:54;102218.28;;;22.23;55.80
80333;BME280;69652;51.864;-2.246;2023-08-21T11:15:27;102226.59;;;22.23;56.12
80333;BME280;69652;51.864;-2.246;2023-08-21T11:18:00;102219.22;;;22.27;55.80
80333;BME280;69652;51.864;-2.246;2023-08-21T11:20:36;102215.72;;;22.43;55.26
80333;BME280;69652;51.864;-2.246;2023-08-21T11:23:04;102220.56;;;22.58;55.03
80333;BME280;69652;51.864;-2.246;2023-08-21T11:25:33;102207.16;;;22.84;54.51
80333;BME280;69652;51.864;-2.246;2023-08-21T11:27:59;102203.09;;;22.94;54.13
80333;BME280;69652;51.864;-2.246;2023-08-21T11:30:26;102206.84;;;22.61;54.78
80333;BME280;69652;51.864;-2.246;2023-08-21T11:33:15;102212.50;;;22.65;54.08
80333;BME280;69652;51.864;-2.246;2023-08-21T11:35:41;102203.59;;;22.72;54.49
80333;BME280;69652;51.864;-2.246;2023-08-21T11:38:15;102212.44;;;22.89;53.58
80333;BME280;69652;51.864;-2.246;2023-08-21T11:40:41;102203.91;;;22.94;52.69
80333;BME280;69652;51.864;-2.246;2023-08-21T11:43:06;102197.75;;;23.29;52.17
80333;BME280;69652;51.864;-2.246;2023-08-21T11:45:34;102189.88;;;23.31;51.90
80333;BME280;69652;51.864;-2.246;2023-08-21T11:47:59;102185.97;;;23.32;52.05
80333;BME280;69652;51.864;-2.246;2023-08-21T11:50:25;102187.81;;;23.56;51.47
80333;BME280;69652;51.864;-2.246;2023-08-21T11:52:55;102186.91;;;23.52;51.59
80333;BME280;69652;51.864;-2.246;2023-08-21T11:55:20;102194.16;;;23.56;50.85
80333;BME280;69652;51.864;-2.246;2023-08-21T11:57:51;102193.94;;;23.49;51.33
80333;BME280;69652;51.864;-2.246;2023-08-21T12:00:18;102182.53;;;23.51;51.86
80333;BME280;69652;51.864;-2.246;2023-08-21T12:05:22;102177.19;;;23.58;52.00
80333;BME280;69652;51.864;-2.246;2023-08-21T12:07:48;102177.25;;;23.61;51.78
80333;BME280;69652;51.864;-2.246;2023-08-21T12:10:13;102180.56;;;23.67;51.48
80333;BME280;69652;51.864;-2.246;2023-08-21T12:12:39;102175.94;;;23.71;51.86
80333;BME280;69652;51.864;-2.246;2023-08-21T12:15:05;102174.56;;;23.96;51.39
80333;BME280;69652;51.864;-2.246;2023-08-21T12:17:30;102167.31;;;24.07;51.39
80333;BME280;69652;51.864;-2.246;2023-08-21T12:19:56;102162.72;;;25.24;48.55
80333;BME280;69652;51.864;-2.246;2023-08-21T12:22:21;102157.41;;;26.92;44.32
80333;BME280;69652;51.864;-2.246;2023-08-21T12:24:47;102151.31;;;25.74;46.50
80333;BME280;69652;51.864;-2.246;2023-08-21T12:27:12;102167.31;;;25.16;48.09
80333;BME280;69652;51.864;-2.246;2023-08-21T12:29:38;102161.06;;;25.42;47.84
80333;BME280;69652;51.864;-2.246;2023-08-21T12:32:04;102156.00;;;25.05;47.17
80333;BME280;69652;51.864;-2.246;2023-08-21T12:34:30;102161.25;;;24.72;48.26
80333;BME280;69652;51.864;-2.246;2023-08-21T12:36:55;102154.22;;;24.59;48.20
80333;BME280;69652;51.864;-2.246;2023-08-21T12:39:21;102149.81;;;24.38;48.75
80333;BME280;69652;51.864;-2.246;2023-08-21T12:41:47;102140.91;;;24.68;48.26
80333;BME280;69652;51.864;-2.246;2023-08-21T12:44:13;102145.59;;;24.83;46.91
80333;BME280;69652;51.864;-2.246;2023-08-21T12:46:39;102144.00;;;24.63;47.47
80333;BME280;69652;51.864;-2.246;2023-08-21T12:49:04;102142.53;;;24.50;47.88